Time;durP1;ratioP1;P1;durP2;ratioP2;P2;SDS_P1;SDS_P2;PMS_P1;PMS_P2;Temp;Humidity;BMP_temperature;BMP_pressure;BME280_temperature;BME280_humidity;BME280_pressure;Samples;Min_cycle;Max_cycle;Signal;HPM_P1;HPM_P2
2022/07/19 00:02:06;;;;;;;3.90;1.90;;;;;;;23.59;49.13;101841.72;5015614;28;96851;-35
2022/07/19 00:04:33;;;;;;;7.38;2.10;;;;;;;23.59;48.90;101841.72;5015657;28;97352;-35
2022/07/19 00:06:58;;;;;;;3.15;1.95;;;;;;;23.58;48.80;101854.69;5014511;28;101043;-35
2022/07/19 00:09:24;;;;;;;6.32;2.10;;;;;;;23.49;49.07;101845.41;5015828;28;96536;-35
2022/07/19 00:11:50;;;;;;;3.35;1.95;;;;;;;23.47;49.26;101841.91;5015525;28;96781;-35
2022/07/19 00:14:16;;;;;;;4.95;2.00;;;;;;;23.45;48.98;101838.44;5014895;28;98725;-35
2022/07/19 00:16:41;;;;;;;3.38;1.88;;;;;;;23.42;48.73;101838.75;5015434;28;97278;-35
2022/07/19 00:19:06;;;;;;;4.95;2.08;;;;;;;23.41;49.35;101847.22;5015453;28;96606;-35
2022/07/19 00:21:32;;;;;;;4.15;2.10;;;;;;;23.40;49.24;101845.47;5015748;28;96802;-35
2022/07/19 00:23:57;;;;;;;4.43;2.10;;;;;;;23.35;49.39;101848.69;5015319;28;97439;-35
2022/07/19 00:26:23;;;;;;;4.43;2.10;;;;;;;23.29;48.93;101832.72;5013411;28;101639;-35
2022/07/19 00:28:49;;;;;;;3.63;2.08;;;;;;;23.24;49.28;101840.59;5015440;28;96511;-35
2022/07/19 00:31:14;;;;;;;3.55;1.85;;;;;;;23.20;49.58;101842.81;5015852;28;96913;-35
2022/07/19 00:33:39;;;;;;;6.18;2.63;;;;;;;23.17;50.23;101848.66;5015138;28;97446;-35
2022/07/19 00:36:05;;;;;;;6.80;1.80;;;;;;;23.14;50.05;101845.31;5014943;28;101609;-35
2022/07/19 00:38:30;;;;;;;4.70;2.35;;;;;;;23.10;50.14;101839.22;5014646;28;96655;-35
2022/07/19 00:40:55;;;;;;;5.20;2.13;;;;;;;23.07;49.29;101825.69;5015318;28;96752;-35
2022/07/19 00:43:21;;;;;;;5.75;2.78;;;;;;;23.10;49.38;101833.69;5014888;28;98783;-35
2022/07/19 00:45:46;;;;;;;4.80;2.05;;;;;;;23.06;49.61;101838.63;5014953;28;98416;-35
2022/07/19 00:48:12;;;;;;;3.55;2.03;;;;;;;23.06;49.54;101840.53;5014993;28;96499;-35
2022/07/19 00:50:37;;;;;;;5.13;1.95;;;;;;;22.98;50.41;101838.53;5015157;28;96868;-34
2022/07/19 00:53:04;;;;;;;5.50;2.30;;;;;;;22.93;50.54;101842.72;5014848;28;99255;-35
2022/07/19 00:55:32;;;;;;;3.97;2.20;;;;;;;22.90;50.90;101853.06;5013452;28;100688;-34
2022/07/19 00:57:59;;;;;;;4.50;2.17;;;;;;;22.82;51.54;101833.63;5013788;28;96585;-35
2022/07/19 01:00:26;;;;;;;4.63;2.33;;;;;;;22.84;50.82;101834.34;5015061;28;96820;-34
2022/07/19 01:02:53;;;;;;;3.85;1.73;;;;;;;22.79;50.80;101827.53;5014086;28;98004;-34
2022/07/19 01:05:18;;;;;;;4.28;2.08;;;;;;;22.79;50.53;101835.81;5013118;28;100604;-35
2022/07/19 01:07:45;;;;;;;5.00;2.17;;;;;;;22.71;50.91;101824.63;5015162;28;96525;-35
2022/07/19 01:10:12;;;;;;;5.47;2.22;;;;;;;22.68;51.61;101826.66;5012175;28;96827;-35
2022/07/19 01:12:38;;;;;;;5.47;2.10;;;;;;;22.68;51.34;101836.84;5013085;28;101436;-34
2022/07/19 01:15:14;;;;;;;4.80;2.17;;;;;;;22.65;51.75;101842.69;5013156;28;100854;-34
2022/07/19 01:17:40;;;;;;;5.95;2.15;;;;;;;22.62;51.20;101840.19;5013588;28;96696;-34
2022/07/19 01:20:06;;;;;;;5.45;2.17;;;;;;;22.54;51.80;101826.28;5015244;28;98644;-34
2022/07/19 01:22:31;;;;;;;6.10;2.30;;;;;;;22.53;51.75;101827.31;5013026;28;100842;-35
2022/07/19 01:24:57;;;;;;;5.32;2.85;;;;;;;22.51;51.45;101823.81;5014602;28;97257;-34
2022/07/19 01:27:22;;;;;;;4.35;2.45;;;;;;;22.48;51.94;101823.09;5014318;28;96612;-35
2022/07/19 01:29:47;;;;;;;9.23;2.28;;;;;;;22.47;52.09;101829.63;5015050;28;96764;-35
2022/07/19 01:32:13;;;;;;;6.13;2.60;;;;;;;22.43;51.74;101825.44;5014266;28;106303;-35
2022/07/19 01:34:38;;;;;;;4.82;2.53;;;;;;;22.40;52.04;101820.19;5014365;28;97840;-35
2022/07/19 01:37:03;;;;;;;5.30;2.35;;;;;;;22.44;51.68;101832.69;5013763;28;96740;-34
2022/07/19 01:39:29;;;;;;;6.45;2.90;;;;;;;22.35;51.75;101822.53;5014874;28;96760;-35
2022/07/19 01:41:54;;;;;;;4.68;2.55;;;;;;;22.39;52.07;101836.91;5014182;28;97917;-35
2022/07/19 01:44:20;;;;;;;5.40;2.55;;;;;;;22.37;53.02;101839.81;5015003;28;97278;-35
2022/07/19 01:46:45;;;;;;;4.88;2.83;;;;;;;22.35;52.25;101833.56;5014282;28;96513;-35
2022/07/19 01:49:10;;;;;;;7.15;2.72;;;;;;;22.31;52.11;101822.97;5014611;28;96657;-34
2022/07/19 01:51:36;;;;;;;7.18;2.75;;;;;;;22.23;52.89;101819.06;5013454;28;108047;-35
2022/07/19 01:54:01;;;;;;;4.97;2.20;;;;;;;22.20;52.92;101823.97;5013953;28;100383;-35
2022/07/19 01:56:27;;;;;;;8.48;2.83;;;;;;;22.20;53.35;101832.25;5014428;28;96695;-35
2022/07/19 01:58:52;;;;;;;5.03;2.80;;;;;;;22.15;53.39;101826.31;5014623;28;96917;-35
2022/07/19 02:01:17;;;;;;;11.68;2.90;;;;;;;22.05;53.54;101809.75;5013842;28;99202;-35
2022/07/19 02:03:43;;;;;;;6.75;2.88;;;;;;;22.14;53.02;101830.06;5013562;28;99195;-34
2022/07/19 02:06:09;;;;;;;5.82;2.97;;;;;;;22.08;53.38;101817.75;5014315;28;96709;-34
2022/07/19 02:08:34;;;;;;;7.78;3.00;;;;;;;22.09;52.63;101813.94;5012770;28;96884;-35
2022/07/19 02:11:34;;;;;;;9.00;3.40;;;;;;;22.05;52.90;101804.25;5014017;28;97912;-35
2022/07/19 02:13:45;;;;;;;6.85;3.13;;;;;;;22.02;53.24;101804.50;5013441;28;98830;-34
2022/07/19 02:16:10;;;;;;;7.15;2.92;;;;;;;22.06;53.79;101811.50;5012430;28;97199;-35
2022/07/19 02:18:36;;;;;;;5.95;3.30;;;;;;;22.06;53.30;101812.34;5013806;28;98181;-34
2022/07/19 02:21:01;;;;;;;7.38;3.67;;;;;;;22.07;53.50;101821.50;5013890;28;116150;-34
2022/07/19 02:23:26;;;;;;;6.05;3.28;;;;;;;22.03;53.11;101811.78;5017239;28;99137;-35
2022/07/19 02:25:51;;;;;;;8.57;3.58;;;;;;;21.97;53.38;101807.72;5017046;28;96641;-35
2022/07/19 02:28:17;;;;;;;6.65;3.60;;;;;;;21.98;53.30;101806.72;5017411;28;96623;-34
2022/07/19 02:30:42;;;;;;;9.95;3.10;;;;;;;21.87;54.28;101792.19;5016703;28;108841;-34
2022/07/19 02:33:07;;;;;;;6.20;3.15;;;;;;;21.92;54.19;101801.75;5016813;28;116760;-34
2022/07/19 02:35:33;;;;;;;6.65;2.90;;;;;;;21.89;54.53;101809.47;5017223;28;96599;-35
2022/07/19 02:37:58;;;;;;;6.53;3.15;;;;;;;21.81;54.20;101796.41;5016688;28;96822;-34
2022/07/19 02:40:23;;;;;;;8.18;3.40;;;;;;;21.76;55.17;101795.94;5016312;28;98930;-34
2022/07/19 02:42:49;;;;;;;5.45;3.10;;;;;;;21.76;54.52;101799.59;5016870;28;97949;-34
2022/07/19 02:45:14;;;;;;;7.10;3.45;;;;;;;21.78;54.69;101803.06;5017163;28;96599;-35
2022/07/19 02:47:39;;;;;;;6.47;3.38;;;;;;;21.77;54.46;101801.31;5016945;28;96712;-34
2022/07/19 02:50:05;;;;;;;6.82;3.47;;;;;;;21.70;54.94;101785.50;5016874;28;97967;-35
2022/07/19 02:52:31;;;;;;;7.60;3.17;;;;;;;21.70;54.69;101788.25;5015286;28;101986;-34
2022/07/19 02:54:56;;;;;;;10.13;3.65;;;;;;;21.62;55.38;101778.81;5016708;28;97829;-34
2022/07/19 02:57:21;;;;;;;5.93;3.10;;;;;;;21.62;55.39;101789.84;5017411;28;96764;-34
2022/07/19 02:59:47;;;;;;;6.93;3.63;;;;;;;21.57;55.40;101789.41;5016215;28;111103;-35
2022/07/19 03:02:12;;;;;;;5.68;3.35;;;;;;;21.59;55.22;101790.13;5016032;28;112577;-34
2022/07/19 03:04:37;;;;;;;6.88;3.85;;;;;;;21.58;55.36;101791.16;5016260;28;96608;-34
2022/07/19 03:07:03;;;;;;;8.65;3.50;;;;;;;21.51;55.41;101778.94;5016660;28;96749;-34
2022/07/19 03:09:28;;;;;;;6.70;3.28;;;;;;;21.52;55.75;101793.59;5016655;28;97754;-35
2022/07/19 03:11:53;;;;;;;6.35;3.40;;;;;;;21.49;55.85;101794.75;5016598;28;97527;-35
2022/07/19 03:14:19;;;;;;;7.65;4.00;;;;;;;21.49;55.28;101780.09;5015283;28;96582;-34
2022/07/19 03:16:44;;;;;;;5.63;3.03;;;;;;;21.51;55.61;101795.50;5016756;28;96796;-35
2022/07/19 03:19:09;;;;;;;7.95;3.65;;;;;;;21.49;55.27;101788.38;5016289;28;97497;-34
2022/07/19 03:21:35;;;;;;;7.70;3.42;;;;;;;21.47;55.89;101794.03;5016340;28;97788;-35
2022/07/19 03:24:00;;;;;;;6.78;3.35;;;;;;;21.47;55.49;101788.50;5016213;28;96607;-35
2022/07/19 03:26:26;;;;;;;7.75;3.33;;;;;;;21.39;55.18;101782.81;5016423;28;96818;-35
2022/07/19 03:28:52;;;;;;;8.75;3.53;;;;;;;21.44;55.26;101799.84;5015893;28;97879;-35
2022/07/19 03:31:18;;;;;;;7.28;3.55;;;;;;;21.36;55.35;101778.47;5016245;28;97785;-35
2022/07/19 03:33:43;;;;;;;8.00;3.60;;;;;;;21.34;54.89;101776.88;5015473;28;96603;-34
2022/07/19 03:36:08;;;;;;;9.70;3.60;;;;;;;21.40;55.50;101792.84;5015789;28;96875;-35
2022/07/19 03:38:34;;;;;;;7.80;3.63;;;;;;;21.33;55.56;101780.63;5015619;28;99436;-35
2022/07/19 03:40:59;;;;;;;7.95;3.60;;;;;;;21.35;55.62;101789.63;5015984;28;97807;-34
2022/07/19 03:43:25;;;;;;;7.07;3.45;;;;;;;21.31;56.20;101789.06;5016322;28;96713;-34
2022/07/19 03:45:50;;;;;;;6.47;3.97;;;;;;;21.29;55.65;101784.69;5016347;28;96617;-34
2022/07/19 03:48:17;;;;;;;9.25;3.63;;;;;;;21.26;55.73;101774.81;5015833;28;98843;-34
2022/07/19 03:50:43;;;;;;;8.77;3.95;;;;;;;21.26;55.88;101779.44;5014243;28;100901;-34
2022/07/19 03:53:08;;;;;;;8.30;4.03;;;;;;;21.20;55.51;101767.13;5014198;28;96714;-35
2022/07/19 03:55:33;;;;;;;6.32;3.63;;;;;;;21.26;56.06;101779.44;5015910;28;96799;-35
2022/07/19 03:57:59;;;;;;;9.15;3.72;;;;;;;21.26;56.09;101788.59;5015670;28;97948;-34
2022/07/19 04:00:25;;;;;;;8.40;3.80;;;;;;;21.18;55.25;101781.03;5015675;28;98008;-34
2022/07/19 04:02:50;;;;;;;6.90;3.88;;;;;;;21.24;55.52;101781.47;5015659;28;96672;-35
2022/07/19 04:05:15;;;;;;;12.23;4.65;;;;;;;21.23;55.86;101777.84;5015384;28;96882;-34
2022/07/19 04:07:41;;;;;;;8.68;4.60;;;;;;;21.19;55.16;101781.91;5015452;28;99746;-34
2022/07/19 04:10:07;;;;;;;9.80;4.28;;;;;;;21.25;55.38;101786.84;5016317;28;97263;-34
2022/07/19 04:12:33;;;;;;;11.05;4.15;;;;;;;21.21;55.70;101782.63;5014217;28;96675;-34
2022/07/19 04:14:58;;;;;;;8.85;4.25;;;;;;;21.25;56.22;101794.25;5014408;28;96829;-34
2022/07/19 04:17:23;;;;;;;7.50;4.38;;;;;;;21.18;56.09;101783.78;5015144;28;97853;-34
2022/07/19 04:19:49;;;;;;;6.45;3.85;;;;;;;21.21;56.10;101790.88;5015164;28;97887;-34
2022/07/19 04:22:14;;;;;;;8.20;3.88;;;;;;;21.15;56.50;101781.31;5015617;28;96516;-35
2022/07/19 04:24:39;;;;;;;7.22;3.67;;;;;;;21.15;56.60;101791.47;5015829;28;96697;-34
2022/07/19 04:27:05;;;;;;;8.43;3.90;;;;;;;21.11;56.32;101779.84;5015231;28;98006;-34
2022/07/19 04:29:30;;;;;;;7.28;3.30;;;;;;;21.12;56.47;101784.34;5015044;28;99226;-34
2022/07/19 04:31:56;;;;;;;9.75;3.65;;;;;;;21.17;56.31;101790.31;5015570;28;96561;-34
2022/07/19 04:34:21;;;;;;;6.20;3.97;;;;;;;21.18;56.08;101793.94;5015531;28;96831;-35
2022/07/19 04:36:46;;;;;;;10.07;4.60;;;;;;;21.16;56.13;101788.56;5014248;28;102325;-35
2022/07/19 04:39:12;;;;;;;8.95;4.03;;;;;;;21.23;55.95;101793.50;5015220;28;97921;-34
2022/07/19 04:41:37;;;;;;;9.43;3.92;;;;;;;21.20;56.12;101778.13;5014347;28;108591;-34
2022/07/19 04:44:02;;;;;;;7.18;3.75;;;;;;;21.26;55.65;101790.47;5015126;28;96704;-34
2022/07/19 04:46:28;;;;;;;7.75;3.72;;;;;;;21.28;55.42;101794.81;5014984;28;97292;-34
2022/07/19 04:48:53;;;;;;;7.05;3.40;;;;;;;21.29;55.88;101791.06;5015012;28;97784;-34
2022/07/19 04:51:18;;;;;;;13.68;5.10;;;;;;;21.31;55.34;101799.19;5015284;28;96537;-34
2022/07/19 04:53:43;;;;;;;7.00;4.07;;;;;;;21.29;56.03;101784.69;5014978;28;96765;-34
2022/07/19 04:56:09;;;;;;;8.95;4.55;;;;;;;21.31;55.43;101780.78;5015171;28;99880;-34
2022/07/19 04:58:34;;;;;;;8.25;4.35;;;;;;;21.36;55.02;101785.88;5014833;28;104523;-34
2022/07/19 05:00:59;;;;;;;9.13;4.32;;;;;;;21.39;55.41;101785.56;5014797;28;101193;-34
2022/07/19 05:03:25;;;;;;;11.02;4.70;;;;;;;21.38;55.42;101784.72;5014848;28;96837;-34
2022/07/19 05:05:50;;;;;;;7.45;4.75;;;;;;;21.38;55.19;101778.31;5014057;28;98975;-35
2022/07/19 05:08:17;;;;;;;10.52;4.57;;;;;;;21.42;54.94;101768.78;5014725;28;97289;-34
2022/07/19 05:10:42;;;;;;;13.65;4.47;;;;;;;21.37;55.57;101760.03;5014883;28;96696;-35
2022/07/19 05:13:07;;;;;;;7.32;3.92;;;;;;;21.53;55.46;101782.44;5014903;28;96797;-34
2022/07/19 05:15:33;;;;;;;6.60;3.92;;;;;;;21.55;55.30;101776.78;5014550;28;98387;-34
2022/07/19 05:17:58;;;;;;;8.40;4.30;;;;;;;21.51;55.03;101767.91;5014718;28;97717;-35
2022/07/19 05:20:23;;;;;;;10.13;4.45;;;;;;;21.58;55.55;101773.75;5014704;28;96632;-34
2022/07/19 05:22:49;;;;;;;10.38;4.70;;;;;;;21.62;55.17;101772.44;5015317;28;96805;-35
2022/07/19 05:25:15;;;;;;;7.70;4.82;;;;;;;21.64;55.31;101773.16;5014216;28;99220;-34
2022/07/19 05:27:40;;;;;;;7.60;4.72;;;;;;;21.69;54.96;101775.47;5013089;28;100770;-34
2022/07/19 05:30:06;;;;;;;10.50;5.43;;;;;;;21.79;54.75;101780.00;5014080;28;96763;-34
2022/07/19 05:32:32;;;;;;;8.32;4.68;;;;;;;21.83;54.66;101777.78;5014714;28;96707;-34
2022/07/19 05:34:57;;;;;;;9.68;4.53;;;;;;;21.84;54.77;101768.53;5014002;28;97376;-34
2022/07/19 05:37:23;;;;;;;10.30;4.72;;;;;;;21.97;54.71;101782.88;5013654;28;99155;-34
2022/07/19 05:39:48;;;;;;;10.95;5.50;;;;;;;22.02;54.74;101780.56;5014142;28;101126;-34
2022/07/19 05:42:13;;;;;;;12.60;5.30;;;;;;;22.10;54.70;101779.84;5014735;28;96795;-34
2022/07/19 05:44:38;;;;;;;9.30;4.80;;;;;;;22.15;54.59;101779.41;5013250;28;115634;-34
2022/07/19 05:47:04;;;;;;;7.65;4.43;;;;;;;22.26;54.10;101779.25;5014342;28;98750;-34
2022/07/19 05:49:29;;;;;;;11.65;5.68;;;;;;;22.30;54.14;101772.41;5013263;28;96747;-34
2022/07/19 05:51:55;;;;;;;10.27;5.32;;;;;;;22.38;54.25;101778.06;5014272;28;96791;-34
2022/07/19 05:54:20;;;;;;;10.98;5.03;;;;;;;22.48;53.68;101780.81;5013657;28;97900;-34
2022/07/19 05:56:46;;;;;;;10.45;5.38;;;;;;;22.58;53.59;101778.03;5016299;28;97258;-34
2022/07/19 05:59:11;;;;;;;8.27;5.28;;;;;;;22.61;54.07;101762.00;5017585;28;96600;-34
2022/07/19 06:01:36;;;;;;;9.13;5.45;;;;;;;22.73;53.87;101778.41;5017577;28;97220;-34
2022/07/19 06:04:02;;;;;;;14.27;5.32;;;;;;;22.79;52.78;101770.38;5017086;28;99210;-35
2022/07/19 06:06:33;;;;;;;10.77;5.72;;;;;;;22.91;53.52;101776.59;5015903;28;100733;-34
2022/07/19 06:08:59;;;;;;;11.50;5.22;;;;;;;22.99;53.14;101767.56;5016366;28;96701;-34
2022/07/19 06:11:26;;;;;;;9.18;5.05;;;;;;;23.08;52.95;101774.94;5016653;28;96851;-34
2022/07/19 06:13:51;;;;;;;12.27;5.13;;;;;;;23.13;52.95;101769.81;5017450;28;99384;-34
2022/07/19 06:16:17;;;;;;;10.82;4.80;;;;;;;23.24;53.08;101769.59;5017030;28;99042;-34
2022/07/19 06:18:43;;;;;;;10.90;5.47;;;;;;;23.30;52.45;101752.38;5015407;28;96654;-34
2022/07/19 06:21:20;;;;;;;8.88;5.25;;;;;;;23.43;52.77;101762.19;5017130;28;101849;-34
2022/07/19 06:23:46;;;;;;;11.43;5.30;;;;;;;23.53;52.20;101768.53;5015834;28;100996;-34
2022/07/19 06:26:12;;;;;;;11.68;5.50;;;;;;;23.65;52.08;101775.56;5015589;28;100807;-34
2022/07/19 06:28:39;;;;;;;9.23;4.88;;;;;;;23.70;52.14;101764.03;5015952;28;96736;-34
2022/07/19 06:31:06;;;;;;;11.32;5.75;;;;;;;23.79;51.36;101767.75;5015967;28;96821;-34
2022/07/19 06:33:31;;;;;;;11.25;4.95;;;;;;;23.97;51.78;101782.47;5015517;28;101043;-34
2022/07/19 06:35:57;;;;;;;11.65;5.43;;;;;;;24.01;50.94;101758.97;5016890;28;99122;-34
2022/07/19 06:38:22;;;;;;;9.88;5.15;;;;;;;24.20;51.07;101776.44;5016778;28;96916;-34
2022/07/19 06:40:47;;;;;;;12.30;4.82;;;;;;;24.29;50.93;101769.94;5017034;28;96799;-34
2022/07/19 06:43:13;;;;;;;11.60;5.25;;;;;;;24.42;50.81;101770.34;5016606;28;97896;-34
2022/07/19 06:45:38;;;;;;;11.32;5.05;;;;;;;24.54;50.42;101773.75;5016727;28;105885;-34
2022/07/19 06:48:04;;;;;;;9.07;4.57;;;;;;;24.62;50.58;101761.84;5017240;28;96609;-34
2022/07/19 06:50:30;;;;;;;14.63;5.95;;;;;;;24.83;50.14;101767.84;5017073;28;96832;-34
2022/07/19 06:52:55;;;;;;;11.07;5.28;;;;;;;24.94;49.89;101770.34;5016700;28;97939;-34
2022/07/19 06:55:20;;;;;;;11.00;5.20;;;;;;;25.07;49.72;101763.44;5016715;28;97732;-34
2022/07/19 06:57:46;;;;;;;13.00;5.65;;;;;;;25.22;49.57;101767.38;5017122;28;96550;-34
2022/07/19 07:00:13;;;;;;;10.38;5.28;;;;;;;25.32;49.00;101762.53;5016074;28;96958;-34
2022/07/19 07:02:39;;;;;;;13.63;5.32;;;;;;;25.45;48.82;101750.94;5014933;28;101143;-34
2022/07/19 07:05:06;;;;;;;9.02;4.78;;;;;;;25.56;48.78;101753.41;5016352;28;98817;-34
2022/07/19 07:07:31;;;;;;;9.23;4.88;;;;;;;25.61;48.57;101747.34;5014758;28;96736;-34
2022/07/19 07:09:57;;;;;;;14.75;5.95;;;;;;;25.82;48.53;101758.81;5016792;28;96601;-34
2022/07/19 07:12:22;;;;;;;13.93;5.50;;;;;;;25.91;47.88;101759.72;5016489;28;97887;-34
2022/07/19 07:14:47;;;;;;;9.88;5.32;;;;;;;26.02;47.90;101755.72;5015987;28;98657;-34
2022/07/19 07:17:12;;;;;;;10.60;5.20;;;;;;;26.16;48.14;101749.47;5016828;28;96624;-34
2022/07/19 07:19:38;;;;;;;11.38;5.00;;;;;;;26.28;48.02;101744.41;5016753;28;96779;-34
2022/07/19 07:22:03;;;;;;;13.57;5.65;;;;;;;26.43;47.22;101756.56;5016364;28;97461;-34
2022/07/19 07:24:29;;;;;;;12.63;5.03;;;;;;;26.54;47.35;101746.13;5016722;28;97612;-34
2022/07/19 07:26:55;;;;;;;8.85;5.03;;;;;;;26.64;46.98;101747.66;5016540;28;96669;-34
2022/07/19 07:29:20;;;;;;;8.98;4.90;;;;;;;26.78;46.87;101743.28;5014912;28;96876;-34
2022/07/19 07:31:45;;;;;;;11.93;5.22;;;;;;;26.92;46.63;101738.88;5015496;28;98717;-34
2022/07/19 07:34:11;;;;;;;10.65;5.47;;;;;;;27.04;46.88;101736.56;5016260;28;97788;-34
2022/07/19 07:36:36;;;;;;;11.02;5.80;;;;;;;27.14;46.29;101734.41;5016214;28;96621;-35
2022/07/19 07:39:02;;;;;;;14.05;5.50;;;;;;;27.32;46.62;101746.19;5016079;28;96862;-34
2022/07/19 07:41:27;;;;;;;9.65;5.03;;;;;;;27.48;45.88;101747.13;5016121;28;97463;-34
2022/07/19 07:43:52;;;;;;;10.13;5.03;;;;;;;27.58;46.44;101744.97;5016151;28;97175;-34
2022/07/19 07:46:18;;;;;;;14.98;6.07;;;;;;;27.64;45.14;101747.00;5015729;28;99902;-34
2022/07/19 07:48:43;;;;;;;14.93;5.38;;;;;;;27.74;46.02;101749.53;5016739;28;96812;-34
2022/07/19 07:51:09;;;;;;;9.85;5.05;;;;;;;27.85;45.67;101745.50;5015930;28;97934;-34
2022/07/19 07:53:34;;;;;;;11.20;5.50;;;;;;;27.99;45.41;101741.91;5015975;28;97558;-34
2022/07/19 07:55:59;;;;;;;11.35;4.88;;;;;;;28.14;45.44;101745.56;5015798;28;96695;-34
2022/07/19 07:58:25;;;;;;;9.45;4.85;;;;;;;28.29;45.18;101741.94;5015460;28;96901;-35
2022/07/19 08:00:50;;;;;;;10.90;5.10;;;;;;;28.36;44.52;101740.13;5015142;28;112378;-35
2022/07/19 08:03:17;;;;;;;7.90;4.68;;;;;;;28.51;44.27;101748.56;5015488;28;97930;-34
2022/07/19 08:05:47;;;;;;;10.73;5.15;;;;;;;28.56;44.41;101737.72;5015822;28;96821;-34
2022/07/19 08:08:15;;;;;;;8.35;4.45;;;;;;;28.74;44.46;101748.47;5015766;28;96786;-34
2022/07/19 08:10:40;;;;;;;9.13;4.63;;;;;;;28.80;43.97;101733.75;5014023;28;101087;-34
2022/07/19 08:13:06;;;;;;;10.18;4.70;;;;;;;28.95;43.33;101740.19;5015620;28;97798;-34
2022/07/19 08:15:31;;;;;;;8.48;4.30;;;;;;;29.06;43.33;101732.38;5014389;28;96625;-35
2022/07/19 08:17:57;;;;;;;11.80;4.70;;;;;;;29.19;43.45;101736.22;5015687;28;96766;-34
2022/07/19 08:20:22;;;;;;;9.45;4.25;;;;;;;29.27;42.90;101735.25;5014380;28;97914;-35
2022/07/19 08:22:48;;;;;;;11.55;4.82;;;;;;;29.44;42.83;101735.88;5015633;28;97132;-34
2022/07/19 08:25:16;;;;;;;8.95;4.78;;;;;;;29.51;41.75;101736.81;5015687;28;96569;-34
2022/07/19 08:27:42;;;;;;;7.70;3.88;;;;;;;29.57;41.86;101724.84;5015158;28;96872;-35
2022/07/19 08:30:08;;;;;;;11.05;4.75;;;;;;;29.67;40.58;101732.06;5015381;28;98034;-34
2022/07/19 08:32:33;;;;;;;7.47;3.90;;;;;;;29.81;41.85;101731.13;5013767;28;102052;-34
2022/07/19 08:34:58;;;;;;;8.23;3.83;;;;;;;29.96;41.03;101733.84;5015591;28;96757;-34
2022/07/19 08:37:24;;;;;;;11.25;3.50;;;;;;;30.20;41.08;101735.31;5015008;28;103693;-34
2022/07/19 08:39:49;;;;;;;9.55;4.00;;;;;;;30.29;40.87;101724.91;5014954;28;105341;-34
2022/07/19 08:42:19;;;;;;;8.02;3.53;;;;;;;30.45;40.83;101714.25;5014916;28;97822;-34
2022/07/19 08:44:51;;;;;;;5.93;3.55;;;;;;;30.59;40.41;101719.94;5013331;28;96703;-34
2022/07/19 08:47:18;;;;;;;12.57;3.65;;;;;;;30.67;39.93;101708.59;5013864;28;96792;-35
2022/07/19 08:49:44;;;;;;;7.03;2.90;;;;;;;30.75;39.32;101710.34;5013537;28;100582;-34
2022/07/19 08:52:11;;;;;;;6.28;2.90;;;;;;;30.89;39.39;101712.16;5013404;28;100699;-35
2022/07/19 08:54:37;;;;;;;4.97;2.75;;;;;;;30.99;39.17;101706.22;5013760;28;96518;-35
2022/07/19 08:59:46;;;;;;;4.90;2.22;;;;;;;31.27;37.83;101708.88;5013402;28;97123;-34
2022/07/19 09:02:12;;;;;;;6.93;2.63;;;;;;;31.44;37.71;101700.97;5014665;28;99095;-34
2022/07/19 09:04:37;;;;;;;4.72;2.42;;;;;;;31.47;37.74;101690.22;5014593;28;107686;-34
2022/07/19 09:07:02;;;;;;;3.28;2.17;;;;;;;31.64;36.76;101706.63;5014906;28;96771;-34
2022/07/19 09:09:36;;;;;;;3.75;2.33;;;;;;;31.78;36.38;101711.16;5013675;28;99215;-34
2022/07/19 09:12:04;;;;;;;5.00;3.03;;;;;;;31.91;37.13;101699.09;5014836;28;97849;-34
2022/07/19 09:14:35;;;;;;;4.68;2.10;;;;;;;32.12;35.31;101709.25;5013628;28;96510;-34
2022/07/19 09:17:06;;;;;;;;;;;;;;;32.07;35.25;101701.50;5013972;28;96895;-34
2022/07/19 09:19:36;;;;;;;4.30;1.92;;;;;;;32.26;36.19;101696.94;5013311;28;100724;-34
2022/07/19 09:22:11;;;;;;;5.72;2.53;;;;;;;32.40;34.11;101700.59;5013127;28;101254;-35
2022/07/19 09:24:40;;;;;;;6.10;2.28;;;;;;;32.51;36.10;101697.16;5013361;28;96759;-33
2022/07/19 09:27:11;;;;;;;6.72;2.55;;;;;;;32.61;33.94;101690.19;5013650;28;96829;-33
2022/07/19 09:29:40;;;;;;;4.55;2.20;;;;;;;32.67;34.86;101695.78;5012906;28;101014;-33
2022/07/19 09:32:10;;;;;;;4.75;2.38;;;;;;;32.81;35.02;101682.59;5015374;28;100864;-33
2022/07/19 09:34:48;;;;;;;4.60;2.10;;;;;;;32.92;33.77;101690.31;5016214;28;96627;-33
2022/07/19 09:37:28;;;;;;;3.63;2.40;;;;;;;33.09;35.53;101689.84;5017653;28;96527;-33
2022/07/19 09:39:56;;;;;;;7.63;2.15;;;;;;;33.25;35.60;101683.69;5017673;28;99588;-33
2022/07/19 09:42:23;;;;;;;4.95;2.33;;;;;;;33.41;34.17;101690.72;5016343;28;100929;-33
2022/07/19 09:45:00;;;;;;;7.10;2.70;;;;;;;33.43;34.57;101680.97;5016580;28;96783;-33
2022/07/19 09:47:37;;;;;;;6.18;2.30;;;;;;;33.58;34.61;101680.69;5016516;28;96956;-33
2022/07/19 09:50:07;;;;;;;3.80;2.08;;;;;;;33.57;33.10;101675.31;5016350;28;100896;-33
2022/07/19 09:52:36;;;;;;;7.85;2.75;;;;;;;33.66;33.51;101678.69;5016241;28;100759;-33
2022/07/19 09:55:06;;;;;;;5.88;4.05;;;;;;;33.79;33.79;101682.25;5016516;28;96688;-33
2022/07/19 09:57:44;;;;;;;6.75;2.10;;;;;;;33.84;33.59;101682.44;5016671;28;97012;-33
2022/07/19 10:00:11;;;;;;;5.00;2.38;;;;;;;34.00;34.13;101677.34;5017480;28;98034;-33
2022/07/19 10:02:42;;;;;;;4.30;2.30;;;;;;;34.07;33.69;101668.84;5016003;28;100932;-33
2022/07/19 10:05:10;;;;;;;5.63;2.30;;;;;;;34.25;34.10;101669.78;5018004;28;96559;-33
2022/07/19 10:07:36;;;;;;;6.25;2.20;;;;;;;34.29;33.51;101666.47;5017767;28;96851;-33
2022/07/19 10:10:07;;;;;;;3.88;2.40;;;;;;;34.32;32.87;101660.38;5016148;28;101589;-33
2022/07/19 10:12:33;;;;;;;6.93;2.20;;;;;;;34.45;33.40;101661.09;5014774;28;100974;-34
2022/07/19 10:14:59;;;;;;;5.07;2.42;;;;;;;34.56;33.24;101655.78;5016834;28;97043;-34
2022/07/19 10:38:00;;;;;;;4.88;2.17;;;;;;;35.61;29.02;101646.16;5003018;28;99279;-32
2022/07/19 10:43:29;;;;;;;4.15;2.03;;;;;;;35.72;30.13;101634.88;5014691;28;96551;-33
2022/07/19 10:45:57;;;;;;;4.72;2.00;;;;;;;35.71;29.76;101640.78;5017116;28;98927;-33
2022/07/19 10:48:45;;;;;;;3.83;1.98;;;;;;;35.58;30.25;101640.97;5017120;28;99239;-33
2022/07/19 10:51:34;;;;;;;6.97;2.28;;;;;;;35.80;30.28;101628.03;5017418;28;96502;-33
2022/07/19 10:54:06;;;;;;;8.38;2.35;;;;;;;35.96;29.84;101631.25;5017405;28;96506;-33
2022/07/19 10:56:34;;;;;;;3.83;2.35;;;;;;;36.08;30.43;101630.13;5014762;28;100893;-33
2022/07/19 10:59:11;;;;;;;5.00;2.53;;;;;;;36.13;29.63;101626.59;5015268;28;100829;-33
2022/07/19 11:01:39;;;;;;;6.47;2.33;;;;;;;36.12;29.02;101620.09;5015546;28;96574;-33
2022/07/19 11:04:26;;;;;;;4.13;2.22;;;;;;;36.32;28.91;101618.84;5015352;28;96987;-33
2022/07/19 11:07:11;;;;;;;4.35;1.98;;;;;;;36.32;26.99;101613.19;5014957;28;101074;-33
2022/07/19 11:09:43;;;;;;;10.65;3.55;;;;;;;36.21;27.18;101611.25;5016686;28;97808;-33
2022/07/19 11:12:26;;;;;;;5.30;2.25;;;;;;;36.30;28.34;101618.22;5015158;28;96580;-33
2022/07/19 11:14:52;;;;;;;3.35;2.08;;;;;;;36.15;27.74;101611.13;5016991;28;96781;-33
2022/07/19 11:17:18;;;;;;;3.35;1.75;;;;;;;36.36;28.79;101608.78;5015111;28;101193;-33
2022/07/19 11:20:01;;;;;;;5.47;2.25;;;;;;;36.58;28.09;101602.50;5016350;28;97757;-33
2022/07/19 11:22:26;;;;;;;12.98;2.40;;;;;;;36.67;28.10;101610.34;5014837;28;96710;-33
2022/07/19 11:24:51;;;;;;;6.60;2.40;;;;;;;36.81;28.57;101605.25;5016403;28;96867;-34
2022/07/19 11:27:17;;;;;;;8.32;2.60;;;;;;;36.93;27.34;101602.38;5016250;28;97372;-33
2022/07/19 11:30:00;;;;;;;6.32;2.47;;;;;;;36.92;27.98;101603.47;5016446;28;97210;-33
2022/07/19 11:32:26;;;;;;;5.45;2.10;;;;;;;36.91;28.04;101602.63;5015052;28;96668;-33
2022/07/19 11:35:00;;;;;;;11.27;2.67;;;;;;;36.95;27.38;101595.38;5014777;28;96995;-34
2022/07/19 11:37:28;;;;;;;5.85;2.38;;;;;;;37.06;26.65;101593.59;5014628;28;101361;-34
2022/07/19 11:39:54;;;;;;;4.05;2.15;;;;;;;37.03;26.33;101596.91;5014503;28;100933;-33
2022/07/19 11:42:33;;;;;;;4.65;2.22;;;;;;;37.01;26.92;101595.47;5016048;28;96607;-33
2022/07/19 11:44:59;;;;;;;3.17;2.00;;;;;;;37.10;26.86;101592.00;5014977;28;96765;-33
2022/07/19 11:47:24;;;;;;;4.50;2.15;;;;;;;37.24;26.79;101586.03;5013961;28;101172;-33